KAVL

Asheville Regional Airport

Asheville, North Carolina, USA
METAR KAVL 150054Z 33003KT 10SM FEW090 24/17 A3011 RMK AO2 SLP171 T02390172
Observed Flight Rules
Aug-15 @ 00:54 UTC (13 minutes ago) Visual Flight Rules
Wind Visibility Clouds
330° at 3 knots 10 miles
  • Few at 9,000' AGL
Temperatures Readings
Current 24°C / 75°F
Dewpoint 17°C / 63°F
Humidity 65%
Altimeter 30.11" Hg
Pressure 1017.1 hPa
Elevation 670
METAR KAVL 150054Z 33003KT 10SM FEW090 24/17 A3011 RMK AO2 SLP171 T02390172
Observed Flight Rules
Aug-15 @ 00:54 UTC
(13 minutes ago)
VFR
Wind Visibility
330° at 3 knots 10 miles
Clouds
  • Few at 9,000' AGL
Temperature Dewpoint
24°C / 75°F 17°C / 63°F
Humidity Altimeter Pressure
65% 30.11" Hg 1017.1 hPa